Latest Coastal Weather Observations for Yeppoon

IDQ60701

Issued at 10:51 pm EST Wednesday 4 March 2015 (issued every 10 minutes, with the page automatically refreshed every 10 minutes)

About coastal observations | Map of coastal stations | Coastal observations for QLD | Marine services | Other Formats
Station Details ID: 033294 Name: YEPPOON THE ESPLANADE Lat: -23.14 Lon: 150.75 Height: 5.5 m
Data from the previous 72 hours. | See also: Recent months at Yeppoon
Date/Time
EST
Temp

°C
Wind Pressure Rain
since 9am
mm
Weather Cloud Vis
km
Sea
Height
m
Swell
Dir
 
Speed
knots
Gust
knots
hPa Trend Height
m
Period
s
Dir
04/10:30pm 26.1 ENE 7 9 1012.4 - 0.2 - - - - - - -
04/10:00pm 26.2 ENE 7 9 1012.4 - 0.2 - - - - - - -
04/09:30pm 26.4 NE 7 9 1012.3 - 0.2 - - - - - - -
04/09:00pm 26.1 ENE 7 9 1012.2 - 0.2 - - - - - - -
04/08:30pm 26.4 NE 7 9 1012.0 - 0.2 - - - - - - -
04/08:00pm 26.3 NE 8 9 1011.9 - 0.2 - - - - - - -
04/07:30pm 26.0 NE 9 11 1011.6 - 0.2 - - - - - - -
04/07:00pm 25.6 ENE 9 11 1011.5 - 0.2 - - - - - - -
04/06:30pm 25.7 ENE 8 10 1011.3 - 0.2 - - - - - - -
04/06:00pm 25.9 ENE 9 11 1011.2 - 0.2 - - - - - - -
04/05:30pm 26.2 ENE 9 12 1011.1 - 0.2 - - - - - - -
04/05:00pm 26.6 NE 9 11 1010.9 - 0.2 - - - - - - -
04/04:30pm 27.5 ENE 8 11 1010.9 - 0.2 - - - - - - -
04/04:00pm 28.1 E 9 12 1011.0 - 0.2 - - - - - - -
04/03:30pm 28.1 E 10 13 1011.0 - 0.2 - - - - - - -
04/03:00pm 28.0 E 10 12 1011.2 - 0.2 - - - - - - -
04/02:30pm 28.1 E 9 12 1011.5 - 0.2 - - - - - - -
04/02:00pm 28.0 E 10 13 1011.7 - 0.2 - - - - - - -
04/01:30pm 27.0 E 10 13 1012.0 - 0.2 - - - - - - -
04/01:00pm 27.0 E 9 12 1012.4 - 0.2 - - - - - - -
04/12:30pm 27.3 ESE 9 12 1012.7 - 0.2 - - - - - - -
04/12:00pm 27.6 E 9 13 1012.9 - 0.2 - - - - - - -
04/11:30am 27.7 ESE 9 13 1013.1 - 0.2 - - - - - - -
04/11:00am 27.2 E 11 16 1013.3 - 0.2 - - - - - - -
04/10:30am 27.6 ESE 9 16 1013.5 - 0.2 - - - - - - -
04/10:00am 27.1 SE 11 14 1013.7 - 0.2 - - - - - - -
04/09:30am 26.0 SE 10 13 1013.7 - 0.2 - - - - - - -
04/09:00am 25.8 SE 9 13 1013.6 - 2.8 - - - - - - -
04/08:30am 25.7 SE 10 15 1013.4 - 2.8 - - - - - - -
04/08:00am 25.5 SE 10 15 1013.2 - 2.8 - - - - - - -
04/07:37am 23.3 SE 10 15 1012.9 - 2.8 - - - - - - -
04/07:30am 17.9 SE 9 15 1012.8 - 2.8 - - - - - - -
04/07:00am 17.1 SSE 7 11 1012.6 - 2.8 - - - - - - -
04/06:30am 16.6 SSE 5 7 1012.4 - 2.8 - - - - - - -
04/06:00am 16.3 SE 7 9 1012.3 - 2.8 - - - - - - -
04/05:30am 16.0 SSE 5 8 1012.0 - 2.8 - - - - - - -
04/05:00am 15.8 S 6 8 1011.8 - 2.8 - - - - - - -
04/04:30am 15.8 S 5 8 1011.7 - 2.8 - - - - - - -
04/04:26am 18.1 S 5 8 1011.7 - 2.8 - - - - - - -
04/04:00am 23.3 SSE 4 7 1011.5 - 2.8 - - - - - - -
04/03:30am 24.4 SE 3 7 1011.5 - 0.6 - - - - - - -
04/03:00am 25.7 ESE 12 19 1011.6 - 0.0 - - - - - - -
04/02:30am 26.1 ESE 11 16 1011.7 - 0.0 - - - - - - -
04/02:00am 26.1 ESE 10 17 1012.2 - 0.0 - - - - - - -
04/01:30am 26.1 E 12 17 1012.5 - 0.0 - - - - - - -
04/01:00am 26.1 ESE 10 15 1012.8 - 0.0 - - - - - - -
04/12:30am 26.1 ESE 10 15 1013.2 - 0.0 - - - - - - -
04/12:00am 26.3 ESE 11 17 1013.4 - 0.0 - - - - - - -
 
Date/Time
EST
Temp

°C
Wind Pressure Rain
since 9am
mm
Weather Cloud Vis
km
Sea
Height
m
Swell
Dir
 
Speed
knots
Gust
knots
hPa Trend Height
m
Period
s
Dir
03/11:30pm 26.5 E 13 18 1013.5 - 0.0 - - - - - - -
03/11:00pm 26.7 E 15 18 1013.6 - 0.0 - - - - - - -
03/10:30pm 26.8 E 13 17 1013.8 - 0.0 - - - - - - -
03/10:00pm 26.8 ESE 9 15 1013.8 - 0.0 - - - - - - -
03/09:30pm 26.8 E 13 17 1013.7 - 0.0 - - - - - - -
03/09:00pm 26.8 E 11 15 1013.6 - 0.0 - - - - - - -
03/08:30pm 26.9 E 13 15 1013.3 - 0.0 - - - - - - -
03/08:00pm 27.0 E 11 13 1013.0 - 0.0 - - - - - - -
03/07:30pm 27.0 E 13 16 1012.6 - 0.0 - - - - - - -
03/07:00pm 26.7 E 13 17 1012.3 - 0.0 - - - - - - -
03/06:30pm 26.7 E 14 17 1012.0 - 0.0 - - - - - - -
03/06:00pm 27.1 E 12 15 1011.7 - 0.0 - - - - - - -
03/05:30pm 27.5 E 13 15 1011.5 - 0.0 - - - - - - -
03/05:00pm 27.1 ENE 13 15 1011.4 - 0.0 - - - - - - -
03/04:30pm 27.8 E 13 16 1011.3 - 0.0 - - - - - - -
03/04:00pm 28.0 E 15 17 1011.0 - 0.0 - - - - - - -
03/03:30pm 28.0 E 14 18 1011.1 - 0.0 - - - - - - -
03/03:00pm 28.1 E 14 18 1011.3 - 0.0 - - - - - - -
03/02:30pm 28.6 E 13 16 1011.5 - 0.0 - - - - - - -
03/02:00pm 28.4 E 12 16 1011.8 - 0.0 - - - - - - -
03/01:30pm 28.6 E 13 17 1012.4 - 0.0 - - - - - - -
03/01:00pm 28.7 E 11 15 1012.6 - 0.0 - - - - - - -
03/12:30pm 28.5 ESE 13 17 1013.0 - 0.0 - - - - - - -
03/12:00pm 28.6 ESE 12 18 1013.4 - 0.0 - - - - - - -
03/11:30am 28.5 ESE 12 17 1013.8 - 0.0 - - - - - - -
03/11:00am 28.8 ESE 12 17 1013.8 - 0.0 - - - - - - -
03/10:30am 28.3 ESE 12 16 1014.2 - 0.0 - - - - - - -
03/10:00am 28.3 SE 12 17 1014.2 - 0.0 - - - - - - -
03/09:30am 27.8 SE 11 17 1014.1 - 0.0 - - - - - - -
03/09:00am 27.6 SE 11 15 1014.0 - 0.0 - - - - - - -
03/08:30am 27.2 SE 12 17 1013.7 - 0.0 - - - - - - -
03/08:00am 26.8 SE 11 15 1013.5 - 0.0 - - - - - - -
03/07:30am 26.3 SE 12 16 1013.2 - 0.0 - - - - - - -
03/07:00am 25.7 SE 8 11 1012.9 - 0.0 - - - - - - -
03/06:30am 24.8 SSE 7 10 1012.6 - 0.0 - - - - - - -
03/06:00am 24.9 SSE 6 10 1012.5 - 0.0 - - - - - - -
03/05:30am 25.3 SE 8 12 1012.2 - 0.0 - - - - - - -
03/05:00am 25.6 SSE 8 13 1011.9 - 0.0 - - - - - - -
03/04:30am 26.2 ESE 14 20 1011.7 - 0.0 - - - - - - -
03/04:00am 26.3 ESE 13 19 1011.6 - 0.0 - - - - - - -
03/03:30am 26.2 ESE 11 15 1011.4 - 0.0 - - - - - - -
03/03:00am 26.2 ESE 13 20 1011.6 - 0.0 - - - - - - -
03/02:30am 26.2 E 15 21 1011.6 - 0.0 - - - - - - -
03/02:00am 26.2 E 15 22 1011.9 - 0.0 - - - - - - -
03/01:30am 26.4 E 15 21 1012.2 - 0.0 - - - - - - -
03/01:00am 26.4 E 16 21 1012.4 - 0.0 - - - - - - -
03/12:30am 26.4 E 15 23 1012.5 - 0.0 - - - - - - -
03/12:00am 26.3 E 16 23 1012.7 - 0.0 - - - - - - -
 
Date/Time
EST
Temp

°C
Wind Pressure Rain
since 9am
mm
Weather Cloud Vis
km
Sea
Height
m
Swell
Dir
 
Speed
knots
Gust
knots
hPa Trend Height
m
Period
s
Dir
02/11:30pm 26.2 ESE 14 22 1012.8 - 0.0 - - - - - - -
02/11:00pm 26.6 ESE 15 21 1012.8 - 0.0 - - - - - - -
02/10:30pm 26.4 ESE 12 18 1012.6 - 0.0 - - - - - - -
02/10:00pm 26.5 E 18 23 1012.3 - 0.0 - - - - - - -
02/09:30pm 26.7 E 18 22 1012.1 - 0.0 - - - - - - -
02/09:00pm 26.8 E 15 20 1012.0 - 0.0 - - - - - - -
02/08:30pm 27.0 E 16 20 1011.8 - 0.0 - - - - - - -
02/08:00pm 26.7 E 16 20 1011.5 - 0.0 - - - - - - -
02/07:30pm 26.2 ENE 13 17 1011.0 - 0.0 - - - - - - -
02/07:00pm 26.7 ENE 13 17 1011.0 - 0.0 - - - - - - -
02/06:30pm 27.0 E 15 17 1010.6 - 0.0 - - - - - - -
02/06:00pm 27.7 ENE 17 19 1010.2 - 0.0 - - - - - - -
02/05:30pm 27.8 ENE 13 17 1009.9 - 0.0 - - - - - - -
02/05:00pm 28.0 ENE 13 16 1009.5 - 0.0 - - - - - - -
02/04:30pm 27.8 ENE 13 16 1009.0 - 0.0 - - - - - - -
02/04:00pm 28.3 NE 14 17 1008.7 - 0.0 - - - - - - -
02/03:30pm 28.8 NE 13 16 1008.7 - 0.0 - - - - - - -
02/03:00pm 29.2 NE 13 15 1008.7 - 0.0 - - - - - - -
02/02:30pm 29.1 NE 12 15 1008.8 - 0.0 - - - - - - -
02/02:00pm 29.0 ENE 10 13 1009.1 - 0.0 - - - - - - -
02/01:30pm 29.7 ENE 11 14 1009.5 - 0.0 - - - - - - -
02/01:00pm 29.6 ENE 10 13 1009.9 - 0.0 - - - - - - -
02/12:30pm 29.5 ENE 11 13 1010.2 - 0.0 - - - - - - -
02/12:00pm 29.8 ENE 10 11 1010.3 - 0.0 - - - - - - -
02/11:30am 29.6 E 11 15 1010.7 - 0.0 - - - - - - -
02/11:00am 29.7 E 10 11 1010.9 - 0.0 - - - - - - -
02/10:30am 29.7 E 8 10 1011.2 - 0.0 - - - - - - -
02/10:00am 29.8 ENE 7 10 1011.3 - 0.0 - - - - - - -
02/09:30am 28.4 ENE 7 8 1011.3 - 0.0 - - - - - - -
02/09:00am 28.6 ENE 5 7 1011.3 - 0.0 - - - - - - -
02/08:30am 25.9 E 7 9 1011.5 - 0.0 - - - - - - -
02/08:00am 26.8 SSW 3 5 1011.0 - 0.0 - - - - - - -
02/07:30am 25.6 WSW 3 4 1010.9 - 0.0 - - - - - - -
02/07:00am 20.4 WSW 3 4 1010.6 - 0.0 - - - - - - -
02/06:30am 16.9 W 5 6 1010.0 - 0.0 - - - - - - -
02/06:00am 17.2 W 5 6 1009.6 - 0.0 - - - - - - -
02/05:30am 15.8 W 4 5 1009.2 - 0.0 - - - - - - -
02/05:00am 19.5 W 5 6 1008.8 - 0.0 - - - - - - -
02/04:30am 18.1 W 5 6 1008.6 - 0.0 - - - - - - -
02/04:13am 21.1 W 4 5 1008.5 - 0.0 - - - - - - -
02/04:00am 16.1 W 5 6 1008.5 - 0.0 - - - - - - -
02/03:30am 16.3 W 4 5 1008.4 - 0.0 - - - - - - -
02/03:00am 16.8 W 4 5 1008.4 - 0.0 - - - - - - -
02/02:30am 17.5 WSW 1 3 1008.7 - 0.0 - - - - - - -
02/02:00am 18.2 NNW 4 7 1008.6 - 0.0 - - - - - - -
02/01:30am 18.4 N 5 7 1008.9 - 0.0 - - - - - - -
02/01:00am 18.8 N 6 8 1009.4 - 0.0 - - - - - - -
02/12:30am 19.4 NNE 9 12 1009.5 - 0.0 - - - - - - -
02/12:00am 19.4 NNE 9 11 1009.8 - 0.0 - - - - - - -
 
Date/Time
EST
Temp

°C
Wind Pressure Rain
since 9am
mm
Weather Cloud Vis
km
Sea
Height
m
Swell
Dir
 
Speed
knots
Gust
knots
hPa Trend Height
m
Period
s
Dir
01/11:30pm 19.6 NNE 10 13 1009.7 - 0.0 - - - - - - -
01/11:00pm 19.8 NE 11 14 1009.7 - 0.0 - - - - - - -
01/10:56pm 19.7 NNE 11 14 1009.6 - 0.0 - - - - - - -

Other Formats:

Comma delimited format used in spreadsheet applications
http://www.bom.gov.au/fwo/IDQ60701/IDQ60701.94373.axf

JavaScript Object Notation format (JSON) in row-major order
http://www.bom.gov.au/fwo/IDQ60701/IDQ60701.94373.json